createdAt,value
2019-02-10T00:00:30.208Z,1.20
2019-02-10T00:06:35.264Z,1.50
2019-02-10T00:11:36.605Z,1.50
2019-02-10T00:16:37.932Z,1.70
2019-02-10T00:21:39.342Z,1.50
2019-02-10T00:26:40.873Z,1.53
2019-02-10T00:31:42.451Z,1.20
2019-02-10T00:36:43.916Z,0.90
2019-02-10T00:41:45.281Z,1.03
2019-02-10T00:46:46.805Z,0.97
2019-02-10T00:51:48.173Z,0.90
2019-02-10T00:56:49.580Z,1.00
2019-02-10T01:01:50.981Z,0.70
2019-02-10T01:06:52.372Z,1.10
2019-02-10T01:11:53.769Z,1.00
2019-02-10T01:16:55.282Z,0.83
2019-02-10T01:21:56.690Z,0.90
2019-02-10T01:26:58.146Z,1.00
2019-02-10T01:31:59.538Z,1.20
2019-02-10T01:37:00.937Z,1.00
2019-02-10T01:42:02.251Z,0.90
2019-02-10T01:47:03.647Z,1.10
2019-02-10T01:52:05.830Z,0.97
2019-02-10T01:57:07.915Z,0.90
2019-02-10T02:02:10.352Z,0.80
2019-02-10T02:07:11.760Z,0.90
2019-02-10T02:12:14.028Z,0.80
2019-02-10T02:17:15.401Z,0.60
2019-02-10T02:22:16.783Z,0.80
2019-02-10T02:27:18.911Z,0.70
2019-02-10T02:33:24.173Z,0.80
2019-02-10T02:38:25.552Z,0.90
2019-02-10T02:43:26.934Z,0.70
2019-02-10T02:48:28.265Z,0.70
2019-02-10T02:53:29.673Z,0.57
2019-02-10T02:58:31.039Z,0.60
2019-02-10T03:03:33.250Z,0.60
2019-02-10T03:08:34.726Z,0.50
2019-02-10T03:13:36.107Z,0.50
2019-02-10T03:18:37.542Z,0.60
2019-02-10T03:23:38.947Z,0.63
2019-02-10T03:28:40.287Z,0.73
2019-02-10T03:33:41.664Z,0.70
2019-02-10T03:38:43.059Z,0.90
2019-02-10T03:43:44.454Z,0.70
2019-02-10T03:48:46.613Z,0.80
2019-02-10T03:53:48.783Z,0.83
2019-02-10T03:58:50.165Z,0.87
2019-02-10T04:03:51.553Z,0.73
2019-02-10T04:08:52.958Z,0.87
2019-02-10T04:13:54.452Z,0.83
2019-02-10T04:18:55.923Z,0.50
2019-02-10T04:23:57.303Z,0.73
2019-02-10T04:28:59.421Z,0.43
2019-02-10T04:34:00.945Z,0.70
2019-02-10T04:39:03.270Z,0.50
2019-02-10T04:44:04.658Z,0.60
2019-02-10T04:49:06.101Z,0.63
2019-02-10T04:54:07.539Z,0.80
2019-02-10T04:59:08.948Z,0.53
2019-02-10T05:04:10.375Z,0.50
2019-02-10T05:09:12.539Z,0.70
2019-02-10T05:14:14.028Z,0.63
2019-02-10T05:19:16.133Z,0.70
2019-02-10T05:24:17.586Z,0.70
2019-02-10T05:29:18.976Z,0.60
2019-02-10T05:34:20.370Z,0.60
2019-02-10T05:39:21.779Z,0.60
2019-02-10T05:44:23.165Z,0.80
2019-02-10T05:49:24.571Z,0.80
2019-02-10T05:54:25.970Z,0.90
2019-02-10T05:59:27.354Z,0.87
2019-02-10T06:04:28.727Z,0.60
2019-02-10T06:09:30.129Z,0.80
2019-02-10T06:14:31.477Z,0.67
2019-02-10T06:19:32.901Z,0.87
2019-02-10T06:24:34.349Z,0.73
2019-02-10T06:29:35.734Z,0.70
2019-02-10T06:34:37.126Z,1.03
2019-02-10T06:39:38.466Z,0.60
2019-02-10T06:44:40.077Z,0.90
2019-02-10T06:49:41.453Z,0.70
2019-02-10T06:54:42.846Z,0.77
2019-02-10T06:59:45.008Z,0.93
2019-02-10T07:04:55.991Z,1.00
2019-02-10T07:09:58.120Z,0.80
2019-02-10T07:14:59.536Z,0.90
2019-02-10T07:20:19.373Z,0.80
2019-02-10T07:30:52.705Z,1.37
2019-02-10T07:47:35.374Z,1.00
2019-02-10T07:53:40.389Z,1.03
2019-02-10T07:58:46.646Z,0.77
2019-02-10T08:09:31.398Z,1.40
2019-02-10T08:14:45.858Z,0.97
2019-02-10T08:20:08.957Z,0.90
2019-02-10T08:25:25.683Z,1.03
2019-02-10T08:30:35.149Z,1.20
2019-02-10T08:35:43.184Z,1.20
2019-02-10T08:41:05.389Z,1.43
2019-02-10T08:52:18.445Z,1.30
2019-02-10T08:57:19.785Z,1.00
2019-02-10T09:02:21.142Z,0.90
2019-02-10T09:07:22.555Z,0.90
2019-02-10T09:12:23.911Z,1.40
2019-02-10T09:18:28.786Z,1.00
2019-02-10T09:23:30.121Z,1.10
2019-02-10T09:28:31.437Z,1.10
2019-02-10T09:33:32.779Z,0.80
2019-02-10T09:38:34.198Z,0.80
2019-02-10T09:44:11.727Z,1.30
2019-02-10T09:49:13.061Z,0.80
2019-02-10T09:54:14.422Z,0.90
2019-02-10T09:59:15.823Z,1.20
2019-02-10T10:04:17.168Z,1.60
2019-02-10T10:09:19.872Z,1.07
2019-02-10T10:14:21.077Z,1.10
2019-02-10T10:19:22.553Z,1.17
2019-02-10T10:24:24.049Z,1.13
2019-02-10T10:29:25.575Z,1.30
2019-02-10T10:34:26.930Z,1.00
2019-02-10T10:39:28.893Z,1.00
2019-02-10T10:44:30.286Z,1.73
2019-02-10T10:49:31.754Z,1.30
2019-02-10T10:54:33.169Z,1.67
2019-02-10T10:59:34.534Z,1.20
2019-02-10T11:05:16.048Z,1.13
2019-02-10T11:10:19.114Z,1.00
2019-02-10T11:15:20.539Z,1.20
2019-02-10T11:20:23.916Z,1.63
2019-02-10T11:25:25.281Z,1.13
2019-02-10T11:30:27.620Z,1.20
2019-02-10T11:35:28.948Z,1.20
2019-02-10T11:40:31.073Z,1.40
2019-02-10T11:45:32.413Z,1.43
2019-02-10T11:50:33.740Z,0.83
2019-02-10T11:55:35.101Z,1.43
2019-02-10T12:00:36.435Z,1.10
2019-02-10T12:05:37.762Z,1.40
2019-02-10T12:10:40.788Z,1.00
2019-02-10T12:15:42.100Z,1.27
2019-02-10T12:20:43.450Z,0.93
2019-02-10T12:25:44.800Z,1.30
2019-02-10T12:30:46.212Z,1.10
2019-02-10T12:35:48.334Z,1.50
2019-02-10T12:40:52.816Z,1.20
2019-02-10T12:45:54.125Z,1.40
2019-02-10T12:50:55.937Z,1.40
2019-02-10T12:55:57.377Z,1.20
2019-02-10T13:00:58.806Z,1.37
2019-02-10T13:06:00.209Z,1.23
2019-02-10T13:11:01.545Z,1.10
2019-02-10T13:16:03.634Z,1.30
2019-02-10T13:21:05.047Z,1.20
2019-02-10T13:26:06.432Z,1.03
2019-02-10T13:31:07.748Z,1.30
2019-02-10T13:36:09.119Z,1.23
2019-02-10T13:41:10.641Z,1.10
2019-02-10T13:46:12.797Z,1.20
2019-02-10T13:51:15.575Z,1.10
2019-02-10T13:56:19.988Z,0.70
2019-02-10T14:01:23.137Z,1.40
2019-02-10T14:06:25.935Z,1.97
2019-02-10T14:11:27.833Z,0.90
2019-02-10T14:16:31.491Z,1.03
2019-02-10T14:21:35.794Z,0.90
2019-02-10T14:26:37.971Z,1.00
2019-02-10T14:31:40.837Z,0.60
2019-02-10T14:36:44.651Z,0.90
2019-02-10T14:41:47.881Z,0.90
2019-02-10T14:46:49.823Z,0.80
2019-02-10T14:51:51.240Z,0.80
2019-02-10T14:56:56.832Z,1.13
2019-02-10T15:02:00.306Z,1.20
2019-02-10T15:07:01.789Z,1.27
2019-02-10T15:12:03.097Z,1.20
2019-02-10T15:17:04.409Z,1.07
2019-02-10T15:22:06.418Z,1.67
2019-02-10T15:27:08.792Z,1.37
2019-02-10T15:32:16.706Z,1.00
2019-02-10T15:37:12.321Z,1.17
2019-02-10T15:42:13.746Z,0.80
2019-02-10T15:47:18.648Z,0.83
2019-02-10T15:52:22.187Z,0.87
2019-02-10T15:57:23.556Z,0.90
2019-02-10T16:02:24.901Z,1.00
2019-02-10T16:07:26.965Z,1.10
2019-02-10T16:12:28.315Z,0.97
2019-02-10T16:17:29.627Z,0.80
2019-02-10T16:22:30.936Z,0.90
2019-02-10T16:27:32.330Z,0.93
2019-02-10T16:32:33.742Z,0.90
2019-02-10T16:37:35.259Z,0.97
2019-02-10T16:42:36.632Z,0.90
2019-02-10T16:47:39.076Z,0.60
2019-02-10T16:52:40.458Z,0.80
2019-02-10T16:57:42.142Z,0.93
2019-02-10T17:02:44.217Z,0.70
2019-02-10T17:07:45.539Z,0.80
2019-02-10T17:12:46.964Z,1.20
2019-02-10T17:17:49.061Z,0.90
2019-02-10T17:22:50.376Z,0.90
2019-02-10T17:27:51.724Z,1.00
2019-02-10T17:32:53.041Z,1.00
2019-02-10T17:37:54.389Z,1.00
2019-02-10T17:42:55.684Z,1.00
2019-02-10T17:47:57.726Z,0.90
2019-02-10T17:52:59.097Z,1.03
2019-02-10T17:58:01.709Z,0.80
2019-02-10T18:03:03.027Z,0.53
2019-02-10T18:08:04.346Z,0.60
2019-02-10T18:13:05.726Z,0.33
2019-02-10T18:18:08.052Z,0.40
2019-02-10T18:23:15.347Z,0.30
2019-02-10T18:28:22.883Z,0.40
2019-02-10T18:33:25.535Z,0.30
2019-02-10T18:38:27.911Z,0.50
2019-02-10T18:43:30.167Z,0.20
2019-02-10T18:54:03.947Z,0.30
2019-02-10T18:59:07.823Z,0.30
2019-02-10T19:04:15.255Z,0.30
2019-02-10T19:09:33.867Z,0.23
2019-02-10T19:14:47.505Z,0.40
2019-02-10T19:19:55.028Z,0.30
2019-02-10T19:25:03.081Z,0.20
2019-02-10T19:30:11.901Z,0.30
2019-02-10T19:35:20.242Z,0.40
2019-02-10T19:40:23.903Z,0.37
2019-02-10T19:45:33.239Z,0.30
2019-02-10T19:50:44.772Z,0.30
2019-02-10T19:55:53.460Z,0.30
2019-02-10T20:01:02.432Z,0.20
2019-02-10T20:06:09.922Z,0.40
2019-02-10T20:16:50.015Z,0.40
2019-02-10T20:21:58.462Z,0.40
2019-02-10T20:27:03.580Z,0.30
2019-02-10T20:37:42.562Z,0.30
2019-02-10T20:42:45.826Z,0.30
2019-02-10T20:47:49.716Z,0.27
2019-02-10T20:52:51.897Z,0.20
2019-02-10T20:57:53.448Z,0.30
2019-02-10T21:03:00.869Z,0.20
2019-02-10T21:08:03.023Z,0.20
2019-02-10T21:18:35.955Z,0.20
2019-02-10T21:23:37.293Z,0.33
2019-02-10T21:28:39.373Z,0.40
2019-02-10T21:39:19.945Z,0.30
2019-02-10T21:44:24.304Z,0.30
2019-02-10T21:49:25.632Z,0.30
2019-02-10T21:54:26.951Z,0.40
2019-02-10T21:59:29.081Z,0.30
2019-02-10T22:04:30.385Z,0.30
2019-02-10T22:09:31.696Z,0.40
2019-02-10T22:14:34.564Z,0.20
2019-02-10T22:19:36.638Z,0.30
2019-02-10T22:24:37.963Z,0.20
2019-02-10T22:29:39.295Z,0.30
2019-02-10T22:34:40.605Z,0.30
2019-02-10T22:39:41.936Z,0.30
2019-02-10T22:44:43.226Z,0.33
2019-02-10T22:49:45.516Z,0.30
2019-02-10T22:54:46.837Z,0.20
2019-02-10T22:59:48.114Z,0.40
2019-02-10T23:04:50.515Z,0.20
2019-02-10T23:09:51.819Z,0.30
2019-02-10T23:14:53.129Z,0.40
2019-02-10T23:19:54.472Z,0.30
2019-02-10T23:24:55.754Z,0.30
2019-02-10T23:29:57.079Z,0.30
2019-02-10T23:34:59.116Z,0.40
2019-02-10T23:40:00.439Z,0.23
2019-02-10T23:45:01.748Z,0.20
2019-02-10T23:50:03.061Z,0.60
2019-02-10T23:55:04.373Z,0.20
